createdAt,value
2018-05-17T00:00:20.899Z,100.00
2018-05-17T00:02:50.510Z,100.00
2018-05-17T00:05:20.292Z,100.00
2018-05-17T00:07:51.138Z,100.00
2018-05-17T00:10:20.861Z,100.00
2018-05-17T00:12:51.017Z,100.00
2018-05-17T00:15:21.373Z,100.00
2018-05-17T00:17:51.723Z,100.00
2018-05-17T00:20:21.296Z,100.00
2018-05-17T00:22:50.788Z,100.00
2018-05-17T00:25:20.303Z,100.00
2018-05-17T00:27:50.798Z,100.00
2018-05-17T00:30:20.540Z,100.00
2018-05-17T00:32:50.782Z,100.00
2018-05-17T00:35:20.628Z,100.00
2018-05-17T00:37:50.330Z,100.00
2018-05-17T00:40:20.440Z,100.00
2018-05-17T00:42:50.186Z,100.00
2018-05-17T00:45:20.070Z,100.00
2018-05-17T00:47:49.743Z,100.00
2018-05-17T00:50:19.707Z,100.00
2018-05-17T00:53:06.910Z,100.00
2018-05-17T00:55:36.432Z,100.00
2018-05-17T00:58:06.294Z,100.00
2018-05-17T01:00:35.969Z,100.00
2018-05-17T01:03:05.792Z,100.00
2018-05-17T01:05:35.414Z,100.00
2018-05-17T01:08:05.963Z,100.00
2018-05-17T01:10:35.750Z,100.00
2018-05-17T01:13:05.436Z,100.00
2018-05-17T01:15:35.054Z,100.00
2018-05-17T01:18:04.648Z,100.00
2018-05-17T01:20:34.266Z,100.00
2018-05-17T01:23:03.854Z,100.00
2018-05-17T01:25:34.551Z,100.00
2018-05-17T01:28:04.331Z,100.00
2018-05-17T01:30:33.941Z,100.00
2018-05-17T01:33:03.817Z,100.00
2018-05-17T01:35:33.437Z,100.00
2018-05-17T01:38:20.867Z,100.00
2018-05-17T01:40:50.473Z,100.00
2018-05-17T01:43:20.209Z,100.00
2018-05-17T01:45:50.044Z,100.00
2018-05-17T01:48:21.989Z,100.00
2018-05-17T01:50:51.691Z,100.00
2018-05-17T01:53:21.297Z,100.00
2018-05-17T01:56:12.803Z,100.00
2018-05-17T01:58:44.227Z,100.00
2018-05-17T02:01:15.023Z,100.00
2018-05-17T02:03:46.306Z,100.00
2018-05-17T02:06:15.977Z,100.00
2018-05-17T02:08:45.690Z,100.00
2018-05-17T02:11:15.390Z,100.00
2018-05-17T02:13:44.943Z,100.00
2018-05-17T02:16:14.506Z,100.00
2018-05-17T02:18:44.318Z,100.00
2018-05-17T02:21:13.910Z,100.00
2018-05-17T02:23:44.218Z,100.00
2018-05-17T02:26:13.837Z,100.00
2018-05-17T02:28:50.623Z,100.00
2018-05-17T02:31:21.267Z,100.00
2018-05-17T02:33:50.932Z,100.00
2018-05-17T02:36:21.385Z,100.00
2018-05-17T02:38:51.120Z,100.00
2018-05-17T02:41:20.917Z,100.00
2018-05-17T02:43:50.541Z,100.00
2018-05-17T02:46:20.845Z,100.00
2018-05-17T02:48:50.419Z,100.00
2018-05-17T02:51:28.514Z,100.00
2018-05-17T02:54:09.829Z,100.00
2018-05-17T02:56:39.572Z,100.00
2018-05-17T02:59:14.002Z,100.00
2018-05-17T03:01:43.810Z,100.00
2018-05-17T03:04:14.947Z,100.00
2018-05-17T03:06:44.555Z,100.00
2018-05-17T03:09:14.230Z,100.00
2018-05-17T03:11:43.848Z,100.00
2018-05-17T03:14:13.590Z,100.00
2018-05-17T03:16:43.907Z,100.00
2018-05-17T03:19:13.575Z,100.00
2018-05-17T03:21:43.099Z,100.00
2018-05-17T03:24:13.057Z,100.00
2018-05-17T03:26:42.862Z,100.00
2018-05-17T03:29:13.355Z,100.00
2018-05-17T03:31:43.094Z,100.00
2018-05-17T03:34:13.309Z,100.00
2018-05-17T03:36:42.839Z,100.00
2018-05-17T03:39:12.416Z,100.00
2018-05-17T03:41:41.958Z,100.00
2018-05-17T03:44:11.473Z,100.00
2018-05-17T03:46:41.874Z,100.00
2018-05-17T03:49:11.584Z,100.00
2018-05-17T03:51:41.404Z,100.00
2018-05-17T03:54:10.903Z,100.00
2018-05-17T03:56:40.455Z,100.00
2018-05-17T03:59:10.083Z,100.00
2018-05-17T04:01:57.556Z,100.00
2018-05-17T04:04:45.053Z,100.00
2018-05-17T04:07:14.799Z,100.00
2018-05-17T04:09:44.458Z,100.00
2018-05-17T04:12:14.181Z,100.00
2018-05-17T04:14:43.920Z,100.00
2018-05-17T04:17:13.469Z,100.00
2018-05-17T04:19:43.128Z,100.00
2018-05-17T04:22:12.854Z,100.00
2018-05-17T04:24:42.463Z,100.00
2018-05-17T04:27:12.048Z,100.00
2018-05-17T04:29:41.666Z,100.00
2018-05-17T04:32:12.524Z,100.00
2018-05-17T04:34:42.956Z,100.00
2018-05-17T04:37:13.436Z,100.00
2018-05-17T04:39:43.070Z,100.00
2018-05-17T04:42:12.577Z,100.00
2018-05-17T04:44:42.349Z,100.00
2018-05-17T04:47:12.165Z,100.00
2018-05-17T04:49:41.732Z,100.00
2018-05-17T04:52:12.787Z,100.00
2018-05-17T04:54:42.309Z,100.00
2018-05-17T04:57:11.830Z,100.00
2018-05-17T04:59:41.571Z,100.00
2018-05-17T05:02:11.283Z,100.00
2018-05-17T05:04:40.821Z,100.00
2018-05-17T05:07:10.563Z,100.00
2018-05-17T05:09:40.322Z,100.00
2018-05-17T05:12:10.070Z,100.00
2018-05-17T05:14:39.678Z,100.00
2018-05-17T05:17:09.937Z,100.00
2018-05-17T05:19:39.554Z,100.00
2018-05-17T05:22:09.116Z,100.00
2018-05-17T05:24:39.781Z,100.00
2018-05-17T05:27:09.354Z,100.00
2018-05-17T05:29:39.846Z,100.00
2018-05-17T05:32:09.417Z,100.00
2018-05-17T05:34:40.487Z,100.00
2018-05-17T05:37:11.440Z,100.00
2018-05-17T05:39:41.962Z,100.00
2018-05-17T05:42:11.883Z,100.00
2018-05-17T05:44:41.459Z,100.00
2018-05-17T05:47:10.963Z,100.00
2018-05-17T05:49:40.760Z,100.00
2018-05-17T05:52:10.321Z,100.00
2018-05-17T05:54:39.895Z,100.00
2018-05-17T05:57:09.528Z,100.00
2018-05-17T05:59:39.335Z,100.00
2018-05-17T06:02:09.087Z,100.00
2018-05-17T06:04:38.973Z,100.00
2018-05-17T06:07:08.676Z,100.00
2018-05-17T06:09:38.504Z,100.00
2018-05-17T06:12:08.266Z,100.00
2018-05-17T06:14:38.123Z,100.00
2018-05-17T06:17:09.243Z,100.00
2018-05-17T06:19:39.372Z,94.53
2018-05-17T06:22:09.823Z,90.87
2018-05-17T06:24:39.626Z,84.62
2018-05-17T06:27:10.674Z,82.03
2018-05-17T06:29:40.227Z,83.29
2018-05-17T06:32:09.740Z,85.97
2018-05-17T06:34:39.603Z,86.19
2018-05-17T06:37:09.304Z,88.29
2018-05-17T06:39:38.884Z,88.89
2018-05-17T06:42:09.036Z,89.24
2018-05-17T06:44:38.688Z,91.13
2018-05-17T06:47:09.081Z,92.65
2018-05-17T06:49:38.855Z,90.22
2018-05-17T06:52:08.486Z,85.94
2018-05-17T06:54:40.324Z,83.20
2018-05-17T06:57:10.063Z,80.53
2018-05-17T06:59:39.666Z,77.47
2018-05-17T07:02:09.665Z,72.74
2018-05-17T07:04:39.168Z,71.62
2018-05-17T07:07:08.689Z,68.83
2018-05-17T07:09:38.418Z,70.47
2018-05-17T07:12:08.134Z,74.18
2018-05-17T07:14:37.813Z,74.68
2018-05-17T07:17:07.307Z,71.84
2018-05-17T07:19:37.120Z,66.58
2018-05-17T07:22:06.739Z,64.04
2018-05-17T07:24:36.316Z,63.68
2018-05-17T07:27:07.670Z,65.90
2018-05-17T07:29:38.454Z,66.69
2018-05-17T07:32:08.269Z,66.59
2018-05-17T07:34:37.824Z,68.06
2018-05-17T07:37:09.407Z,70.87
2018-05-17T07:39:39.252Z,73.87
2018-05-17T07:42:08.948Z,74.14
2018-05-17T07:44:38.638Z,74.53
2018-05-17T07:47:08.399Z,70.21
2018-05-17T07:49:38.087Z,67.89
2018-05-17T07:52:07.721Z,64.94
2018-05-17T07:54:37.710Z,70.35
2018-05-17T07:57:22.616Z,70.69
2018-05-17T07:59:54.232Z,72.64
2018-05-17T08:02:23.910Z,69.23
2018-05-17T08:04:53.378Z,67.29
2018-05-17T08:07:23.767Z,65.57
2018-05-17T08:09:53.487Z,61.87
2018-05-17T08:12:24.735Z,59.56
2018-05-17T08:14:54.449Z,56.14
2018-05-17T08:17:24.146Z,58.30
2018-05-17T08:19:56.324Z,56.30
2018-05-17T08:22:27.051Z,57.10
2018-05-17T08:24:56.870Z,57.62
2018-05-17T08:27:26.658Z,55.83
2018-05-17T08:29:56.231Z,54.26
2018-05-17T08:32:25.927Z,56.94
2018-05-17T08:34:56.354Z,56.65
2018-05-17T08:37:27.078Z,56.61
2018-05-17T08:39:57.798Z,56.68
2018-05-17T08:42:29.466Z,56.80
2018-05-17T08:44:59.369Z,54.72
2018-05-17T08:47:29.323Z,49.60
2018-05-17T08:49:59.036Z,49.57
2018-05-17T08:52:28.788Z,49.06
2018-05-17T08:54:58.512Z,53.00
2018-05-17T08:57:28.118Z,53.11
2018-05-17T08:59:57.626Z,53.83
2018-05-17T09:02:27.265Z,51.65
2018-05-17T09:04:56.896Z,53.05
2018-05-17T09:07:27.489Z,52.37
2018-05-17T09:09:57.026Z,52.47
2018-05-17T09:12:26.801Z,51.80
2018-05-17T09:14:56.619Z,52.29
2018-05-17T09:17:27.039Z,54.36
2018-05-17T09:19:56.728Z,54.30
2018-05-17T09:22:26.439Z,52.35
2018-05-17T09:24:56.173Z,51.30
2018-05-17T09:27:25.908Z,50.46
2018-05-17T09:29:56.830Z,54.29
2018-05-17T09:32:26.413Z,51.97
2018-05-17T09:34:56.155Z,51.23
2018-05-17T09:37:26.196Z,54.03
2018-05-17T09:39:57.875Z,54.84
2018-05-17T09:42:55.245Z,56.00
2018-05-17T09:49:05.051Z,55.79
2018-05-17T09:51:39.086Z,51.90
2018-05-17T09:54:08.771Z,51.96
2018-05-17T09:56:38.482Z,51.82
2018-05-17T09:59:08.038Z,49.05
2018-05-17T10:01:38.445Z,45.81
2018-05-17T10:04:07.936Z,42.79
2018-05-17T10:06:38.422Z,42.00
2018-05-17T10:09:08.059Z,42.93
2018-05-17T10:11:37.645Z,43.95
2018-05-17T10:14:07.329Z,44.33
2018-05-17T10:16:37.627Z,43.11
2018-05-17T10:19:07.619Z,43.14
2018-05-17T10:21:37.245Z,42.99
2018-05-17T10:24:06.931Z,42.22
2018-05-17T10:26:36.453Z,42.02
2018-05-17T10:29:06.952Z,40.31
2018-05-17T10:31:36.661Z,41.53
2018-05-17T10:34:14.283Z,42.59
2018-05-17T10:36:43.906Z,43.93
2018-05-17T10:39:13.790Z,50.37
2018-05-17T10:41:44.471Z,52.32
2018-05-17T10:44:14.780Z,50.99
2018-05-17T10:46:44.463Z,51.69
2018-05-17T10:49:14.060Z,53.54
2018-05-17T10:51:43.742Z,51.50
2018-05-17T10:54:14.146Z,50.22
2018-05-17T10:56:44.554Z,51.56
2018-05-17T10:59:14.441Z,51.22
2018-05-17T11:01:44.063Z,52.16
2018-05-17T11:04:14.705Z,51.28
2018-05-17T11:06:44.224Z,49.65
2018-05-17T11:09:14.129Z,49.43
2018-05-17T11:11:43.749Z,50.12
2018-05-17T11:14:14.195Z,48.97
2018-05-17T11:16:43.972Z,50.15
2018-05-17T11:19:13.786Z,47.02
2018-05-17T11:21:43.555Z,44.61
2018-05-17T11:24:14.029Z,44.21
2018-05-17T11:26:43.889Z,44.51
2018-05-17T11:29:13.595Z,45.84
2018-05-17T11:31:43.300Z,43.64
2018-05-17T11:34:14.510Z,46.36
2018-05-17T11:36:44.042Z,44.24
2018-05-17T11:39:13.694Z,43.65
2018-05-17T11:41:43.536Z,42.33
2018-05-17T11:44:13.224Z,46.09
2018-05-17T11:46:42.923Z,46.32
2018-05-17T11:49:12.599Z,46.88
2018-05-17T11:51:42.993Z,43.96
2018-05-17T11:54:12.637Z,41.70
2018-05-17T11:56:43.013Z,42.92
2018-05-17T11:59:27.734Z,44.81
2018-05-17T12:01:58.013Z,41.83
2018-05-17T12:04:28.684Z,42.55
2018-05-17T12:06:58.361Z,38.73
2018-05-17T12:09:27.850Z,40.77
2018-05-17T12:11:57.467Z,39.03
2018-05-17T12:14:27.050Z,39.29
2018-05-17T12:16:56.590Z,39.67
2018-05-17T12:19:26.410Z,40.34
2018-05-17T12:21:56.109Z,39.73
2018-05-17T12:24:25.706Z,40.18
2018-05-17T12:26:56.724Z,41.20
2018-05-17T12:29:26.438Z,41.00
2018-05-17T12:31:56.155Z,42.80
2018-05-17T12:34:25.679Z,43.13
2018-05-17T12:36:56.109Z,45.57
2018-05-17T12:39:25.629Z,45.36
2018-05-17T12:41:55.223Z,45.70
2018-05-17T12:44:24.760Z,46.17
2018-05-17T12:46:54.364Z,47.06
2018-05-17T12:49:24.052Z,48.77
2018-05-17T12:51:53.661Z,49.09
2018-05-17T12:54:23.773Z,50.36
2018-05-17T12:56:53.575Z,49.18
2018-05-17T12:59:24.129Z,46.03
2018-05-17T13:01:53.839Z,44.47
2018-05-17T13:04:24.368Z,43.61
2018-05-17T13:06:54.106Z,45.10
2018-05-17T13:09:23.737Z,47.32
2018-05-17T13:11:54.032Z,46.95
2018-05-17T13:14:23.580Z,47.88
2018-05-17T13:16:53.328Z,48.29
2018-05-17T13:19:23.811Z,49.02
2018-05-17T13:21:54.621Z,50.06
2018-05-17T13:24:25.625Z,50.55
2018-05-17T13:26:55.422Z,50.60
2018-05-17T13:29:26.227Z,50.61
2018-05-17T13:31:55.895Z,51.01
2018-05-17T13:34:25.722Z,51.87
2018-05-17T13:36:56.918Z,51.65
2018-05-17T13:39:27.362Z,53.58
2018-05-17T13:41:57.304Z,54.58
2018-05-17T13:44:26.942Z,54.95
2018-05-17T13:46:57.550Z,53.31
2018-05-17T13:49:27.070Z,55.56
2018-05-17T13:51:58.038Z,58.77
2018-05-17T13:54:28.405Z,59.16
2018-05-17T13:56:58.087Z,61.98
2018-05-17T13:59:27.848Z,60.65
2018-05-17T14:02:01.520Z,62.53
2018-05-17T14:04:31.319Z,61.74
2018-05-17T14:07:00.986Z,64.38
2018-05-17T14:09:31.566Z,68.73
2018-05-17T14:12:03.390Z,75.28
2018-05-17T14:14:32.948Z,78.29
2018-05-17T14:17:03.067Z,82.98
2018-05-17T14:19:33.385Z,82.92
2018-05-17T14:22:03.586Z,87.56
2018-05-17T14:24:33.227Z,89.20
2018-05-17T14:27:05.123Z,90.27
2018-05-17T14:29:35.597Z,90.64
2018-05-17T14:32:05.311Z,93.31
2018-05-17T14:34:34.917Z,91.98
2018-05-17T14:37:04.918Z,92.15
2018-05-17T14:39:34.517Z,91.67
2018-05-17T14:42:04.888Z,92.69
2018-05-17T14:44:35.660Z,87.55
2018-05-17T14:47:05.975Z,90.86
2018-05-17T14:49:35.831Z,91.34
2018-05-17T14:52:05.955Z,94.89
2018-05-17T14:54:36.064Z,95.87
2018-05-17T14:57:07.253Z,94.12
2018-05-17T14:59:37.060Z,93.85
2018-05-17T15:02:06.700Z,92.94
2018-05-17T15:04:37.150Z,93.19
2018-05-17T15:07:08.140Z,93.75
2018-05-17T15:09:37.718Z,93.77
2018-05-17T15:12:07.232Z,90.98
2018-05-17T15:14:37.075Z,90.98
2018-05-17T15:17:06.645Z,91.05
2018-05-17T15:19:38.136Z,93.25
2018-05-17T15:22:07.860Z,93.42
2018-05-17T15:24:37.724Z,93.22
2018-05-17T15:27:07.259Z,93.90
2018-05-17T15:29:36.979Z,94.20
2018-05-17T15:32:06.544Z,94.88
2018-05-17T15:34:37.119Z,95.64
2018-05-17T15:37:06.926Z,95.96
2018-05-17T15:39:36.722Z,95.65
2018-05-17T15:42:06.495Z,96.27
2018-05-17T15:44:37.046Z,96.21
2018-05-17T15:47:06.995Z,96.10
2018-05-17T15:49:36.804Z,95.86
2018-05-17T15:52:06.439Z,95.52
2018-05-17T15:54:36.265Z,95.38
2018-05-17T15:57:05.917Z,95.46
2018-05-17T15:59:37.226Z,95.92
2018-05-17T16:02:07.914Z,96.09
2018-05-17T16:04:37.748Z,95.68
2018-05-17T16:07:14.425Z,95.54
2018-05-17T16:09:44.161Z,96.43
2018-05-17T16:12:13.966Z,96.03
2018-05-17T16:14:44.624Z,96.28
2018-05-17T16:17:15.916Z,96.61
2018-05-17T16:19:45.680Z,97.10
2018-05-17T16:22:15.544Z,97.74
2018-05-17T16:24:45.256Z,96.94
2018-05-17T16:27:15.113Z,96.91
2018-05-17T16:29:56.012Z,95.53
2018-05-17T16:32:46.735Z,95.21
2018-05-17T16:35:20.415Z,95.34
2018-05-17T16:37:50.178Z,95.71
2018-05-17T16:40:20.263Z,96.41
2018-05-17T16:42:50.075Z,96.84
2018-05-17T16:45:19.700Z,96.49
2018-05-17T16:47:49.383Z,96.96
2018-05-17T16:50:20.850Z,95.24
2018-05-17T16:52:50.739Z,95.52
2018-05-17T16:55:20.626Z,96.12
2018-05-17T16:57:50.295Z,96.11
2018-05-17T17:00:20.327Z,95.90
2018-05-17T17:02:50.102Z,94.84
2018-05-17T17:05:19.633Z,94.12
2018-05-17T17:07:50.755Z,95.32
2018-05-17T17:10:20.599Z,95.36
2018-05-17T17:12:50.410Z,95.35
2018-05-17T17:15:31.593Z,95.09
2018-05-17T17:18:03.857Z,96.38
2018-05-17T17:20:33.375Z,96.36
2018-05-17T17:23:03.393Z,96.28
2018-05-17T17:25:33.131Z,95.80
2018-05-17T17:28:03.947Z,95.59
2018-05-17T17:30:33.523Z,95.36
2018-05-17T17:33:04.782Z,95.13
2018-05-17T17:35:34.370Z,94.95
2018-05-17T17:38:04.482Z,94.65
2018-05-17T17:40:39.861Z,94.50
2018-05-17T17:43:10.176Z,94.59
2018-05-17T17:45:45.727Z,94.51
2018-05-17T17:48:21.691Z,94.45
2018-05-17T17:51:02.834Z,95.04
2018-05-17T17:53:46.445Z,95.38
2018-05-17T17:56:17.658Z,95.46
2018-05-17T17:58:47.143Z,95.40
2018-05-17T18:01:16.752Z,95.24
2018-05-17T18:03:46.531Z,95.23
2018-05-17T18:06:16.291Z,95.48
2018-05-17T18:08:45.816Z,95.94
2018-05-17T18:11:15.680Z,95.24
2018-05-17T18:13:45.335Z,95.18
2018-05-17T18:16:14.909Z,97.54
2018-05-17T18:18:44.809Z,100.00
2018-05-17T18:21:14.558Z,99.60
2018-05-17T18:23:44.142Z,99.94
2018-05-17T18:26:14.061Z,100.00
2018-05-17T18:28:43.713Z,100.00
2018-05-17T18:31:13.345Z,100.00
2018-05-17T18:33:43.866Z,100.00
2018-05-17T18:36:14.275Z,100.00
2018-05-17T18:38:45.393Z,100.00
2018-05-17T18:41:14.981Z,100.00
2018-05-17T18:43:45.025Z,100.00
2018-05-17T18:46:14.776Z,100.00
2018-05-17T18:48:44.856Z,100.00
2018-05-17T18:51:16.106Z,100.00
2018-05-17T18:53:45.923Z,100.00
2018-05-17T18:56:15.629Z,100.00
2018-05-17T18:58:51.163Z,100.00
2018-05-17T19:01:20.889Z,100.00
2018-05-17T19:03:51.429Z,100.00
2018-05-17T19:06:21.256Z,100.00
2018-05-17T19:08:52.348Z,100.00
2018-05-17T19:11:21.994Z,100.00
2018-05-17T19:13:52.505Z,100.00
2018-05-17T19:16:22.428Z,100.00
2018-05-17T19:18:52.345Z,100.00
2018-05-17T19:21:22.229Z,100.00
2018-05-17T19:23:51.977Z,100.00
2018-05-17T19:26:26.172Z,100.00
2018-05-17T19:28:55.884Z,100.00
2018-05-17T19:31:26.213Z,100.00
2018-05-17T19:33:55.809Z,100.00
2018-05-17T19:36:26.334Z,100.00
2018-05-17T19:38:56.096Z,100.00
2018-05-17T19:41:25.891Z,100.00
2018-05-17T19:43:55.717Z,100.00
2018-05-17T19:46:25.330Z,100.00
2018-05-17T19:48:54.994Z,100.00
2018-05-17T20:01:14.615Z,100.00
2018-05-17T20:04:05.210Z,100.00
2018-05-17T20:06:35.168Z,100.00
2018-05-17T20:09:06.844Z,100.00
2018-05-17T20:11:36.684Z,100.00
2018-05-17T20:14:06.735Z,100.00
2018-05-17T20:16:36.497Z,100.00
2018-05-17T20:19:06.311Z,100.00
2018-05-17T20:21:36.109Z,100.00
2018-05-17T20:24:07.001Z,100.00
2018-05-17T20:26:36.734Z,100.00
2018-05-17T20:29:06.399Z,100.00
2018-05-17T20:31:36.014Z,100.00
2018-05-17T20:34:05.700Z,100.00
2018-05-17T20:36:41.897Z,100.00
2018-05-17T20:39:13.998Z,100.00
2018-05-17T20:41:43.661Z,100.00
2018-05-17T20:44:15.327Z,100.00
2018-05-17T20:46:50.972Z,100.00
2018-05-17T20:49:22.403Z,100.00
2018-05-17T20:51:53.227Z,100.00
2018-05-17T20:54:24.274Z,100.00
2018-05-17T20:56:57.052Z,100.00
2018-05-17T20:59:28.985Z,100.00
2018-05-17T21:02:00.867Z,100.00
2018-05-17T21:07:55.889Z,100.00
2018-05-17T21:17:50.705Z,100.00
2018-05-17T21:23:48.807Z,100.00
2018-05-17T21:26:19.677Z,100.00
2018-05-17T21:28:50.508Z,100.00
2018-05-17T21:31:20.106Z,100.00
2018-05-17T21:33:50.258Z,100.00
2018-05-17T21:36:20.778Z,100.00
2018-05-17T21:39:31.213Z,100.00
2018-05-17T21:42:18.532Z,100.00
2018-05-17T21:44:48.498Z,100.00
2018-05-17T21:47:19.144Z,100.00
2018-05-17T21:49:48.839Z,100.00
2018-05-17T21:52:18.614Z,100.00
2018-05-17T21:54:49.576Z,100.00
2018-05-17T21:57:19.830Z,100.00
2018-05-17T22:03:24.855Z,100.00
2018-05-17T22:05:54.638Z,100.00
2018-05-17T22:08:25.380Z,100.00
2018-05-17T22:10:55.290Z,100.00
2018-05-17T22:13:26.079Z,100.00
2018-05-17T22:15:56.080Z,100.00
2018-05-17T22:18:26.480Z,100.00
2018-05-17T22:20:57.382Z,100.00
2018-05-17T22:23:27.162Z,100.00
2018-05-17T22:25:56.794Z,100.00
2018-05-17T22:28:27.326Z,100.00
2018-05-17T22:30:58.013Z,100.00
2018-05-17T22:33:27.841Z,100.00
2018-05-17T22:35:57.503Z,100.00
2018-05-17T22:38:27.080Z,100.00
2018-05-17T22:41:34.653Z,100.00
2018-05-17T22:44:04.977Z,100.00
2018-05-17T22:46:36.296Z,100.00
2018-05-17T22:49:06.995Z,100.00
2018-05-17T22:51:38.099Z,100.00
2018-05-17T22:54:07.865Z,100.00
2018-05-17T22:56:55.542Z,100.00
2018-05-17T22:59:25.632Z,100.00
2018-05-17T23:01:55.551Z,100.00
2018-05-17T23:04:25.256Z,100.00
2018-05-17T23:06:55.212Z,100.00
2018-05-17T23:09:25.000Z,100.00
2018-05-17T23:11:54.814Z,100.00
2018-05-17T23:14:24.627Z,100.00
2018-05-17T23:16:54.252Z,100.00
2018-05-17T23:19:24.381Z,100.00
2018-05-17T23:21:54.376Z,100.00
2018-05-17T23:24:24.746Z,100.00
2018-05-17T23:26:59.661Z,100.00
2018-05-17T23:29:30.676Z,100.00
2018-05-17T23:32:01.627Z,100.00
2018-05-17T23:34:32.055Z,100.00
2018-05-17T23:37:02.271Z,100.00
2018-05-17T23:39:32.683Z,100.00
2018-05-17T23:42:03.107Z,100.00
2018-05-17T23:44:33.397Z,100.00
2018-05-17T23:47:06.089Z,100.00
2018-05-17T23:49:37.897Z,100.00
2018-05-17T23:52:07.760Z,100.00
2018-05-17T23:54:37.421Z,100.00
2018-05-17T23:57:07.140Z,100.00
